Time;durP1;ratioP1;P1;durP2;ratioP2;P2;SDS_P1;SDS_P2;PMS_P1;PMS_P2;Temp;Humidity;BMP_temperature;BMP_pressure;BME280_temperature;BME280_humidity;BME280_pressure;Samples;Min_cycle;Max_cycle;Signal;HPM_P1;HPM_P2
2023/07/02 00:00:24;;;;;;;3.55;2.30;;;20.00;99.90;;;;;;2073804;28;20029;-71
2023/07/02 00:01:24;;;;;;;3.67;2.40;;;20.00;99.90;;;;;;2074889;28;20021;-71
2023/07/02 00:02:25;;;;;;;2.83;2.60;;;20.00;99.90;;;;;;2075865;28;20108;-71
2023/07/02 00:03:26;;;;;;;3.72;2.60;;;20.00;99.90;;;;;;2077006;28;20033;-71
2023/07/02 00:04:26;;;;;;;6.03;2.63;;;20.00;99.90;;;;;;2076596;28;20411;-71
2023/07/02 00:05:27;;;;;;;3.13;1.83;;;20.00;99.90;;;;;;2077434;28;20127;-71
2023/07/02 00:06:27;;;;;;;6.72;2.47;;;20.00;99.90;;;;;;2076430;28;20112;-71
2023/07/02 00:07:28;;;;;;;3.05;2.60;;;20.00;99.90;;;;;;2076539;28;20132;-71
2023/07/02 00:08:28;;;;;;;3.58;2.03;;;20.00;99.90;;;;;;2076383;28;20059;-71
2023/07/02 00:09:29;;;;;;;4.07;2.55;;;20.00;99.90;;;;;;2075562;28;20018;-71
2023/07/02 00:10:29;;;;;;;3.65;2.75;;;20.00;99.90;;;;;;2075294;28;20033;-71
2023/07/02 00:11:30;;;;;;;5.32;2.80;;;20.00;99.90;;;;;;2076563;28;20034;-71
2023/07/02 00:12:30;;;;;;;3.03;2.40;;;20.00;99.90;;;;;;2077428;28;20068;-71
2023/07/02 00:13:31;;;;;;;2.65;2.00;;;20.00;99.90;;;;;;2077163;28;20555;-71
2023/07/02 00:14:31;;;;;;;3.30;2.28;;;20.00;99.90;;;;;;2076406;28;20083;-71
2023/07/02 00:15:32;;;;;;;6.50;2.45;;;20.00;99.90;;;;;;2077801;28;20029;-71
2023/07/02 00:16:33;;;;;;;2.45;2.20;;;20.00;99.90;;;;;;2077219;28;20370;-71
2023/07/02 00:17:33;;;;;;;4.88;2.38;;;20.00;99.90;;;;;;2076536;28;20021;-71
2023/07/02 00:18:34;;;;;;;3.83;2.28;;;20.00;99.90;;;;;;2075516;28;20071;-71
2023/07/02 00:19:35;;;;;;;3.45;2.40;;;19.90;99.90;;;;;;2075319;28;20022;-71
2023/07/02 00:20:37;;;;;;;3.17;2.65;;;19.90;99.90;;;;;;2076151;28;20128;-71
2023/07/02 00:21:40;;;;;;;4.45;2.40;;;19.90;99.90;;;;;;2075644;28;20378;-71
2023/07/02 00:22:45;;;;;;;5.55;2.22;;;19.90;99.90;;;;;;2075922;28;20021;-71
2023/07/02 00:23:46;;;;;;;2.40;2.20;;;19.90;99.90;;;;;;2075825;28;20061;-71
2023/07/02 00:24:47;;;;;;;3.28;2.53;;;19.90;99.90;;;;;;2075396;28;20068;-71
2023/07/02 00:25:48;;;;;;;3.35;1.98;;;19.90;99.90;;;;;;2078887;28;20022;-71
2023/07/02 00:26:49;;;;;;;4.30;2.60;;;19.90;99.90;;;;;;2078150;28;20022;-71
2023/07/02 00:27:49;;;;;;;3.88;2.75;;;19.90;99.90;;;;;;2077884;28;20611;-71
2023/07/02 00:28:50;;;;;;;3.70;2.50;;;19.90;99.90;;;;;;2075436;28;20037;-71
2023/07/02 00:29:51;;;;;;;2.90;2.58;;;19.90;99.90;;;;;;2074682;28;20080;-71
2023/07/02 00:30:51;;;;;;;6.18;2.80;;;19.90;99.90;;;;;;2078198;28;20018;-71
2023/07/02 00:31:52;;;;;;;6.45;2.78;;;19.90;99.90;;;;;;2076604;28;20034;-71
2023/07/02 00:32:52;;;;;;;4.03;2.55;;;19.90;99.90;;;;;;2079400;28;20045;-71
2023/07/02 00:33:53;;;;;;;3.28;2.55;;;19.90;99.90;;;;;;2080278;28;20029;-71
2023/07/02 00:34:53;;;;;;;2.92;2.20;;;19.90;99.90;;;;;;2075949;28;20086;-71
2023/07/02 00:35:54;;;;;;;3.85;3.13;;;19.90;99.90;;;;;;2079586;28;20025;-71
2023/07/02 00:36:55;;;;;;;4.40;2.60;;;19.90;99.90;;;;;;2079940;28;20124;-71
2023/07/02 00:37:55;;;;;;;4.15;2.63;;;19.90;99.90;;;;;;2078173;28;20364;-71
2023/07/02 00:38:56;;;;;;;3.13;2.35;;;19.90;99.90;;;;;;2077356;28;20444;-71
2023/07/02 00:39:57;;;;;;;3.55;2.35;;;19.90;99.90;;;;;;2074664;28;20099;-71
2023/07/02 00:40:58;;;;;;;4.00;2.78;;;19.90;99.90;;;;;;2076462;28;20032;-71
2023/07/02 00:42:05;;;;;;;4.40;2.97;;;19.90;99.90;;;;;;2076905;28;20033;-71
2023/07/02 00:43:06;;;;;;;4.43;2.63;;;19.90;99.90;;;;;;2076306;28;20091;-71
2023/07/02 00:44:06;;;;;;;4.00;2.83;;;19.90;99.90;;;;;;2075417;28;20026;-71
2023/07/02 00:45:07;;;;;;;4.60;2.55;;;19.90;99.90;;;;;;2076656;28;20055;-71
2023/07/02 00:46:08;;;;;;;3.72;2.90;;;19.90;99.90;;;;;;2075191;28;20026;-71
2023/07/02 00:47:10;;;;;;;6.03;3.08;;;19.90;99.90;;;;;;2077827;28;20018;-71
2023/07/02 00:48:10;;;;;;;6.93;3.15;;;19.90;99.90;;;;;;2077038;28;20083;-71
2023/07/02 00:49:11;;;;;;;2.92;2.63;;;19.80;99.90;;;;;;2076323;28;20514;-71
2023/07/02 00:50:12;;;;;;;5.18;2.47;;;19.90;99.90;;;;;;2077361;28;20096;-71
2023/07/02 00:51:18;;;;;;;5.80;2.80;;;19.80;99.90;;;;;;2076195;28;20034;-71
2023/07/02 00:52:20;;;;;;;3.22;2.75;;;19.90;99.90;;;;;;2075623;28;20036;-71
2023/07/02 00:53:20;;;;;;;6.00;3.00;;;19.80;99.90;;;;;;2078507;28;20019;-71
2023/07/02 00:54:21;;;;;;;4.22;2.97;;;19.80;99.90;;;;;;2076503;28;20104;-71
2023/07/02 00:55:21;;;;;;;5.22;2.83;;;19.80;99.90;;;;;;2078400;28;20807;-71
2023/07/02 00:56:23;;;;;;;5.60;2.80;;;19.80;99.90;;;;;;2075189;28;20025;-71
2023/07/02 00:57:29;;;;;;;6.03;3.67;;;19.80;99.90;;;;;;2075468;28;20048;-71
2023/07/02 00:58:30;;;;;;;3.80;2.47;;;19.80;99.90;;;;;;2079090;28;20373;-71
2023/07/02 00:59:34;;;;;;;5.47;2.97;;;19.80;99.90;;;;;;2077818;28;20018;-71
2023/07/02 01:00:37;;;;;;;3.92;2.97;;;19.80;99.90;;;;;;2076430;28;20088;-71
2023/07/02 01:01:37;;;;;;;6.05;2.83;;;19.80;99.90;;;;;;2075902;28;20041;-70
2023/07/02 01:02:38;;;;;;;8.68;3.22;;;19.80;99.90;;;;;;2076939;28;20482;-70
2023/07/02 01:03:39;;;;;;;7.30;3.35;;;19.80;99.90;;;;;;2074836;28;20402;-70
2023/07/02 01:04:40;;;;;;;4.28;2.65;;;19.80;99.90;;;;;;2076372;28;20017;-70
2023/07/02 01:05:41;;;;;;;5.00;2.88;;;19.80;99.90;;;;;;2078306;28;20021;-70
2023/07/02 01:06:42;;;;;;;5.85;2.95;;;19.80;99.90;;;;;;2077461;28;20018;-70
2023/07/02 01:07:42;;;;;;;3.78;2.90;;;19.80;99.90;;;;;;2077244;28;20017;-70
2023/07/02 01:08:43;;;;;;;5.60;2.85;;;19.80;99.90;;;;;;2077433;28;20103;-70
2023/07/02 01:09:43;;;;;;;5.28;3.00;;;19.80;99.90;;;;;;2078198;28;20021;-70
2023/07/02 01:10:44;;;;;;;5.28;3.10;;;19.80;99.90;;;;;;2076487;28;20116;-70
2023/07/02 01:11:50;;;;;;;7.25;3.03;;;19.80;99.90;;;;;;2076868;28;20026;-70
2023/07/02 01:12:51;;;;;;;3.97;3.00;;;19.80;99.90;;;;;;2075816;28;20018;-70
2023/07/02 01:13:54;;;;;;;4.75;2.85;;;19.80;99.90;;;;;;2077372;28;20056;-70
2023/07/02 01:14:58;;;;;;;5.68;2.80;;;19.80;99.90;;;;;;2075624;28;20029;-70
2023/07/02 01:15:59;;;;;;;5.00;2.95;;;19.80;99.90;;;;;;2076561;28;20033;-70
2023/07/02 01:17:03;;;;;;;5.68;3.10;;;19.80;99.90;;;;;;2077601;28;20032;-70
2023/07/02 01:18:06;;;;;;;5.30;2.72;;;19.80;99.90;;;;;;2076235;28;20025;-70
2023/07/02 01:19:12;;;;;;;4.65;3.15;;;19.80;99.90;;;;;;2077088;28;20500;-70
2023/07/02 01:20:13;;;;;;;5.10;3.17;;;19.80;99.90;;;;;;2076462;28;20423;-70
2023/07/02 01:21:14;;;;;;;5.68;3.33;;;19.80;99.90;;;;;;2076469;28;20053;-70
2023/07/02 01:22:14;;;;;;;10.88;3.63;;;19.70;99.90;;;;;;2077014;28;20033;-70
2023/07/02 01:23:15;;;;;;;14.45;3.38;;;19.70;99.90;;;;;;2076683;28;20608;-70
2023/07/02 01:24:16;;;;;;;4.45;2.83;;;19.70;99.90;;;;;;2075541;28;20030;-70
2023/07/02 01:25:18;;;;;;;4.90;3.22;;;19.70;99.90;;;;;;2077205;28;20026;-70
2023/07/02 01:26:19;;;;;;;5.63;3.03;;;19.70;99.90;;;;;;2076315;28;20025;-70
2023/07/02 01:27:20;;;;;;;7.72;3.33;;;19.60;99.90;;;;;;2076110;28;20021;-70
2023/07/02 01:28:23;;;;;;;5.32;3.45;;;19.60;99.90;;;;;;2077461;28;20051;-70
2023/07/02 01:29:24;;;;;;;5.90;3.25;;;19.60;99.90;;;;;;2078561;28;20124;-70
2023/07/02 01:30:25;;;;;;;8.85;3.78;;;19.60;99.90;;;;;;2075778;28;20021;-70
2023/07/02 01:31:26;;;;;;;5.28;3.63;;;19.50;99.90;;;;;;2076083;28;20088;-70
2023/07/02 01:32:27;;;;;;;5.32;3.85;;;19.50;99.90;;;;;;2076894;28;20107;-70
2023/07/02 01:33:27;;;;;;;7.63;3.45;;;19.50;99.90;;;;;;2077854;28;20132;-70
2023/07/02 01:34:28;;;;;;;7.57;4.57;;;19.50;99.90;;;;;;2075427;28;20072;-70
2023/07/02 01:35:29;;;;;;;5.57;3.45;;;19.50;99.90;;;;;;2077493;28;20025;-70
2023/07/02 01:36:29;;;;;;;6.72;3.90;;;19.50;99.90;;;;;;2076382;28;20079;-70
2023/07/02 01:37:36;;;;;;;8.70;4.32;;;19.50;99.90;;;;;;2074984;28;20034;-70
2023/07/02 01:38:37;;;;;;;8.60;4.10;;;19.40;99.90;;;;;;2078613;28;20025;-70
2023/07/02 01:39:38;;;;;;;7.65;3.90;;;19.40;99.90;;;;;;2076099;28;20033;-70
2023/07/02 01:40:38;;;;;;;6.70;3.65;;;19.40;99.90;;;;;;2075538;28;20030;-70
2023/07/02 01:41:49;;;;;;;7.20;3.65;;;19.40;99.90;;;;;;2076896;28;20025;-70
2023/07/02 01:42:50;;;;;;;12.77;4.40;;;19.40;99.90;;;;;;2077708;28;20026;-70
2023/07/02 01:43:50;;;;;;;5.40;3.13;;;19.40;99.90;;;;;;2075108;28;20026;-70
2023/07/02 01:44:51;;;;;;;8.25;4.18;;;19.40;99.90;;;;;;2078255;28;20120;-70
2023/07/02 01:45:51;;;;;;;7.57;4.22;;;19.40;99.90;;;;;;2079623;28;20541;-70
2023/07/02 01:46:52;;;;;;;6.78;3.25;;;19.40;99.90;;;;;;2078901;28;20485;-70
2023/07/02 01:47:52;;;;;;;8.02;3.63;;;19.40;99.90;;;;;;2078237;28;20037;-70
2023/07/02 01:48:53;;;;;;;8.02;3.85;;;19.30;99.90;;;;;;2076086;28;20104;-70
2023/07/02 01:49:54;;;;;;;7.53;3.40;;;19.30;99.90;;;;;;2075806;28;20028;-70
2023/07/02 01:50:54;;;;;;;7.68;4.07;;;19.30;99.90;;;;;;2077057;28;20049;-70
2023/07/02 01:51:56;;;;;;;6.50;3.30;;;19.30;99.90;;;;;;2076181;28;20398;-70
2023/07/02 01:52:56;;;;;;;7.85;3.92;;;19.30;99.90;;;;;;2075319;28;20346;-70
2023/07/02 01:53:57;;;;;;;6.80;3.80;;;19.30;99.90;;;;;;2074284;28;20037;-70
2023/07/02 01:54:57;;;;;;;8.10;4.10;;;19.30;99.90;;;;;;2075610;28;20389;-70
2023/07/02 01:55:59;;;;;;;6.43;3.97;;;19.20;99.90;;;;;;2074089;28;20029;-70
2023/07/02 01:57:00;;;;;;;6.72;4.40;;;19.30;99.90;;;;;;2076309;28;20370;-70
2023/07/02 01:58:00;;;;;;;7.40;3.80;;;19.20;99.90;;;;;;2075567;28;20179;-70
2023/07/02 01:59:01;;;;;;;7.55;4.28;;;19.30;99.90;;;;;;2074995;28;20068;-70
2023/07/02 02:00:02;;;;;;;6.03;4.03;;;19.20;99.90;;;;;;2072983;28;20038;-70
2023/07/02 02:01:03;;;;;;;6.32;3.92;;;19.20;99.90;;;;;;2074057;28;20029;-70
2023/07/02 02:02:03;;;;;;;5.80;3.72;;;19.20;99.90;;;;;;2076061;28;20057;-70
2023/07/02 02:03:04;;;;;;;8.38;4.30;;;19.20;99.90;;;;;;2075787;28;20025;-70
2023/07/02 02:04:05;;;;;;;6.50;3.80;;;19.20;99.90;;;;;;2075279;28;20029;-70
2023/07/02 02:05:05;;;;;;;11.13;4.05;;;19.20;99.90;;;;;;2075096;28;20405;-70
2023/07/02 02:06:06;;;;;;;9.60;4.18;;;19.30;99.90;;;;;;2076213;28;20036;-70
2023/07/02 02:07:07;;;;;;;9.43;4.05;;;19.20;99.90;;;;;;2075939;28;20101;-70
2023/07/02 02:08:07;;;;;;;7.97;4.30;;;19.20;99.90;;;;;;2075762;28;20026;-70
2023/07/02 02:09:12;;;;;;;7.65;3.80;;;19.20;99.90;;;;;;2075902;28;20547;-70
2023/07/02 02:10:14;;;;;;;5.85;4.00;;;19.20;99.90;;;;;;2073484;28;20029;-70
2023/07/02 02:11:15;;;;;;;9.48;4.28;;;19.20;99.90;;;;;;2077083;28;20067;-70
2023/07/02 02:12:15;;;;;;;5.97;4.18;;;19.20;99.90;;;;;;2075525;28;20041;-70
2023/07/02 02:13:16;;;;;;;7.93;4.47;;;19.20;99.90;;;;;;2074597;28;20080;-70
2023/07/02 02:14:16;;;;;;;6.82;4.10;;;19.20;99.90;;;;;;2076007;28;20079;-70
2023/07/02 02:15:17;;;;;;;8.00;4.32;;;19.20;99.90;;;;;;2076418;28;20537;-70
2023/07/02 02:16:18;;;;;;;7.18;4.28;;;19.20;99.90;;;;;;2078028;28;20021;-70
2023/07/02 02:17:18;;;;;;;10.50;4.63;;;19.20;99.90;;;;;;2077325;28;20427;-70
2023/07/02 02:18:19;;;;;;;7.43;3.75;;;19.20;99.90;;;;;;2076043;28;20029;-70
2023/07/02 02:19:19;;;;;;;10.05;4.25;;;19.20;99.90;;;;;;2078198;28;20049;-70
2023/07/02 02:20:20;;;;;;;6.70;4.55;;;19.20;99.90;;;;;;2074114;28;20045;-70
2023/07/02 02:21:21;;;;;;;10.88;4.43;;;19.10;99.90;;;;;;2074386;28;20041;-70
2023/07/02 02:22:22;;;;;;;6.53;4.20;;;19.10;99.90;;;;;;2075280;28;20029;-70
2023/07/02 02:23:23;;;;;;;7.80;4.00;;;19.20;99.90;;;;;;2073722;28;20060;-70
2023/07/02 02:24:24;;;;;;;8.77;4.28;;;19.10;99.90;;;;;;2076906;28;20056;-70
2023/07/02 02:25:24;;;;;;;12.77;4.68;;;19.10;99.90;;;;;;2065555;28;20018;-70
2023/07/02 02:26:25;;;;;;;7.53;4.63;;;19.10;99.90;;;;;;2076258;28;20557;-70
2023/07/02 02:27:25;;;;;;;8.40;4.40;;;19.20;99.90;;;;;;2074821;28;20022;-70
2023/07/02 02:28:26;;;;;;;7.22;4.22;;;19.20;99.90;;;;;;2073961;28;20033;-70
2023/07/02 02:29:26;;;;;;;6.60;4.60;;;19.10;99.90;;;;;;2077096;28;20128;-70
2023/07/02 02:30:27;;;;;;;8.93;4.63;;;19.10;99.90;;;;;;2074943;28;20033;-70
2023/07/02 02:31:28;;;;;;;9.85;4.63;;;19.20;99.90;;;;;;2077918;28;20208;-70
2023/07/02 02:32:29;;;;;;;5.53;4.45;;;19.10;99.90;;;;;;2076878;28;20080;-70
2023/07/02 02:33:30;;;;;;;10.48;5.28;;;19.10;99.90;;;;;;2075790;28;20091;-70
2023/07/02 02:34:30;;;;;;;8.20;4.40;;;19.10;99.90;;;;;;2077089;28;20030;-70
2023/07/02 02:35:31;;;;;;;8.68;4.90;;;19.10;99.90;;;;;;2076948;28;20034;-70
2023/07/02 02:36:32;;;;;;;8.18;5.00;;;19.10;99.90;;;;;;2076331;28;20030;-70
2023/07/02 02:37:34;;;;;;;6.90;4.95;;;19.10;99.90;;;;;;2074941;28;20095;-70
2023/07/02 02:38:37;;;;;;;13.48;5.00;;;19.10;99.90;;;;;;2075753;28;20034;-70
2023/07/02 02:39:38;;;;;;;8.88;5.03;;;19.10;99.90;;;;;;2075397;28;20022;-70
2023/07/02 02:40:38;;;;;;;10.30;5.65;;;19.10;99.90;;;;;;2074508;28;20033;-70
2023/07/02 02:41:39;;;;;;;12.38;5.90;;;19.10;99.90;;;;;;2074911;28;20420;-70
2023/07/02 02:42:39;;;;;;;10.20;5.40;;;19.10;99.90;;;;;;2074210;28;20018;-70
2023/07/02 02:43:43;;;;;;;7.72;4.72;;;19.10;99.90;;;;;;2074916;28;20024;-70
2023/07/02 02:44:44;;;;;;;7.28;4.68;;;19.10;99.90;;;;;;2076080;28;20688;-70
2023/07/02 02:45:44;;;;;;;9.55;5.75;;;19.10;99.90;;;;;;2074842;28;20444;-71
2023/07/02 02:46:45;;;;;;;10.52;5.35;;;19.10;99.90;;;;;;2076279;28;20021;-70
2023/07/02 02:47:46;;;;;;;10.60;5.88;;;19.10;99.90;;;;;;2074399;28;20026;-70
2023/07/02 02:48:46;;;;;;;11.77;5.90;;;19.10;99.90;;;;;;2077041;28;20803;-70
2023/07/02 02:49:47;;;;;;;9.43;5.60;;;19.10;99.90;;;;;;2076792;28;20406;-70
2023/07/02 02:50:47;;;;;;;12.27;5.75;;;19.10;99.90;;;;;;2075812;28;20416;-70
2023/07/02 02:51:48;;;;;;;12.93;6.45;;;19.10;99.90;;;;;;2075806;28;20398;-70
2023/07/02 02:52:49;;;;;;;12.70;5.70;;;19.10;99.90;;;;;;2076021;28;20021;-70
2023/07/02 02:53:49;;;;;;;12.05;6.10;;;19.10;99.90;;;;;;2074461;28;20040;-70
2023/07/02 02:54:52;;;;;;;11.75;5.85;;;19.10;99.90;;;;;;2075288;28;20031;-70
2023/07/02 02:55:53;;;;;;;14.38;6.72;;;19.10;99.90;;;;;;2075265;28;20021;-70
2023/07/02 02:56:54;;;;;;;13.38;6.55;;;19.00;99.90;;;;;;2076526;28;20508;-70
2023/07/02 02:57:54;;;;;;;9.57;5.90;;;19.00;99.90;;;;;;2078252;28;20033;-70
2023/07/02 02:58:55;;;;;;;14.52;6.40;;;19.10;99.90;;;;;;2070764;28;20038;-70
2023/07/02 02:59:55;;;;;;;14.13;7.30;;;19.00;99.90;;;;;;2077833;28;20124;-70
2023/07/02 03:00:56;;;;;;;12.05;6.93;;;19.00;99.90;;;;;;2077221;28;20029;-70
2023/07/02 03:01:56;;;;;;;13.20;7.10;;;19.00;99.90;;;;;;2077444;28;20116;-70
2023/07/02 03:02:57;;;;;;;10.32;6.45;;;19.10;99.90;;;;;;2074877;28;20104;-70
2023/07/02 03:03:58;;;;;;;13.15;6.70;;;19.10;99.90;;;;;;2074789;28;20033;-70
2023/07/02 03:05:02;;;;;;;12.75;7.10;;;19.00;99.90;;;;;;2077818;28;20030;-70
2023/07/02 03:06:02;;;;;;;12.57;6.35;;;19.00;99.90;;;;;;2074450;28;20021;-70
2023/07/02 03:07:03;;;;;;;13.23;7.30;;;19.00;99.90;;;;;;2075803;28;20485;-70
2023/07/02 03:08:04;;;;;;;12.50;8.43;;;19.00;99.90;;;;;;2074990;28;20032;-70
2023/07/02 03:09:04;;;;;;;10.50;7.45;;;19.00;99.90;;;;;;2074604;28;20505;-70
2023/07/02 03:10:05;;;;;;;11.18;6.53;;;19.00;99.90;;;;;;2076270;28;20052;-70
2023/07/02 03:11:06;;;;;;;14.18;7.57;;;19.00;99.90;;;;;;2074598;28;20541;-70
2023/07/02 03:12:07;;;;;;;10.55;6.75;;;19.10;99.90;;;;;;2074384;28;20030;-70
2023/07/02 03:13:08;;;;;;;12.32;6.88;;;19.00;99.90;;;;;;2077547;28;20037;-70
2023/07/02 03:14:08;;;;;;;12.65;7.53;;;19.00;99.90;;;;;;2079063;28;20560;-70
2023/07/02 03:15:09;;;;;;;12.70;8.05;;;19.00;99.90;;;;;;2072977;28;20406;-70
2023/07/02 03:16:10;;;;;;;15.98;7.72;;;19.10;99.90;;;;;;2075063;28;20021;-70
2023/07/02 03:17:13;;;;;;;12.55;8.00;;;19.00;99.90;;;;;;2075741;28;20493;-70
2023/07/02 03:18:13;;;;;;;16.77;8.30;;;19.10;99.90;;;;;;2075911;28;20570;-70
2023/07/02 03:19:15;;;;;;;16.08;7.97;;;19.00;99.90;;;;;;2075783;28;20441;-70
2023/07/02 03:20:16;;;;;;;14.82;6.50;;;19.00;99.90;;;;;;2075407;28;20044;-70
2023/07/02 03:21:17;;;;;;;17.90;9.18;;;19.00;99.90;;;;;;2077008;28;20021;-70
2023/07/02 03:22:18;;;;;;;13.70;7.65;;;19.00;99.90;;;;;;2074131;28;20048;-70
2023/07/02 03:23:18;;;;;;;11.60;7.90;;;19.00;99.90;;;;;;2073827;28;20031;-70
2023/07/02 03:24:19;;;;;;;13.32;8.23;;;19.10;99.90;;;;;;2074793;28;20025;-70
2023/07/02 03:25:19;;;;;;;14.10;8.05;;;19.00;99.90;;;;;;2074189;28;20096;-70
2023/07/02 03:26:21;;;;;;;14.77;8.43;;;19.00;99.90;;;;;;2073263;28;20055;-70
2023/07/02 03:27:21;;;;;;;15.25;8.35;;;19.00;99.90;;;;;;2074886;28;20018;-70
2023/07/02 03:28:22;;;;;;;17.70;8.07;;;19.00;99.90;;;;;;2073464;28;20022;-70
2023/07/02 03:29:23;;;;;;;15.10;8.73;;;19.00;99.90;;;;;;2077493;28;20028;-70
2023/07/02 03:30:23;;;;;;;13.80;8.95;;;19.00;99.90;;;;;;2075662;28;20517;-70
2023/07/02 03:31:24;;;;;;;13.77;8.13;;;19.00;99.90;;;;;;2075030;28;20022;-70
2023/07/02 03:32:24;;;;;;;14.63;9.02;;;19.00;99.90;;;;;;2075124;28;20059;-70
2023/07/02 03:33:25;;;;;;;14.07;9.20;;;19.00;99.90;;;;;;2075721;28;20025;-70
2023/07/02 03:34:25;;;;;;;12.52;8.15;;;19.00;99.90;;;;;;2075608;28;20121;-70
2023/07/02 03:35:26;;;;;;;13.13;8.55;;;19.00;99.90;;;;;;2075491;28;20033;-70
2023/07/02 03:36:26;;;;;;;18.17;9.75;;;19.00;99.90;;;;;;2075427;28;20030;-70
2023/07/02 03:37:27;;;;;;;13.35;8.38;;;19.00;99.90;;;;;;2075980;28;20553;-70
2023/07/02 03:38:27;;;;;;;15.23;9.10;;;19.00;99.90;;;;;;2077419;28;20538;-70
2023/07/02 03:39:28;;;;;;;14.63;9.73;;;19.00;99.90;;;;;;2074979;28;20057;-70
2023/07/02 03:40:28;;;;;;;16.27;9.20;;;19.00;99.90;;;;;;2077178;28;20029;-70
2023/07/02 03:41:29;;;;;;;14.82;8.88;;;19.00;99.90;;;;;;2073412;28;20026;-70
2023/07/02 03:42:30;;;;;;;16.75;9.18;;;19.00;99.90;;;;;;2076393;28;20075;-71
2023/07/02 03:43:31;;;;;;;17.90;8.98;;;19.00;99.90;;;;;;2074392;28;20454;-71
2023/07/02 03:44:31;;;;;;;18.58;9.02;;;19.00;99.90;;;;;;2075024;28;20429;-70
2023/07/02 03:45:32;;;;;;;15.30;8.30;;;19.00;99.90;;;;;;2075096;28;20460;-70
2023/07/02 03:46:32;;;;;;;14.10;8.82;;;19.00;99.90;;;;;;2076924;28;20032;-70
2023/07/02 03:47:33;;;;;;;13.50;9.15;;;19.00;99.90;;;;;;2075919;28;20033;-70
2023/07/02 03:48:33;;;;;;;13.40;8.50;;;19.00;99.90;;;;;;2077026;28;20067;-70
2023/07/02 03:49:34;;;;;;;14.57;8.82;;;19.10;99.90;;;;;;2076499;28;20087;-70
2023/07/02 03:50:35;;;;;;;14.40;9.35;;;19.00;99.90;;;;;;2078207;28;20688;-70
2023/07/02 03:51:35;;;;;;;15.90;8.77;;;19.00;99.90;;;;;;2077136;28;20033;-70
2023/07/02 03:52:36;;;;;;;15.13;8.82;;;19.00;99.90;;;;;;2075288;28;20486;-70
2023/07/02 03:53:36;;;;;;;14.38;9.70;;;19.00;99.90;;;;;;2074329;28;20036;-70
2023/07/02 03:54:37;;;;;;;15.32;9.82;;;19.00;99.90;;;;;;2075564;28;20022;-70
2023/07/02 03:55:39;;;;;;;12.27;8.30;;;19.00;99.90;;;;;;2074455;28;20420;-70
2023/07/02 03:56:39;;;;;;;16.60;9.77;;;19.00;99.90;;;;;;2075164;28;20029;-70
2023/07/02 03:57:40;;;;;;;15.07;8.43;;;19.00;99.90;;;;;;2076544;28;20028;-70
2023/07/02 03:58:41;;;;;;;13.93;8.55;;;19.00;99.90;;;;;;2074964;28;20046;-70
2023/07/02 03:59:41;;;;;;;15.15;9.48;;;19.00;99.90;;;;;;2075795;28;20461;-70
2023/07/02 04:00:44;;;;;;;15.65;8.77;;;19.00;99.90;;;;;;2074735;28;20430;-70
2023/07/02 04:01:44;;;;;;;13.77;9.27;;;19.00;99.90;;;;;;2075778;28;20034;-70
2023/07/02 04:02:48;;;;;;;14.30;9.82;;;19.10;99.90;;;;;;2078549;28;20017;-70
2023/07/02 04:03:50;;;;;;;17.38;9.93;;;19.10;99.90;;;;;;2076577;28;20017;-70
2023/07/02 04:04:50;;;;;;;16.02;9.73;;;19.10;99.90;;;;;;2076589;28;20238;-70
2023/07/02 04:05:51;;;;;;;18.63;10.15;;;19.10;99.90;;;;;;2075337;28;20060;-70
2023/07/02 04:06:51;;;;;;;17.38;9.60;;;19.10;99.90;;;;;;2076281;28;20500;-70
2023/07/02 04:07:52;;;;;;;17.80;9.57;;;19.10;99.90;;;;;;2074820;28;20101;-70
2023/07/02 04:08:52;;;;;;;16.90;9.63;;;19.10;99.90;;;;;;2075692;28;20025;-70
2023/07/02 04:09:53;;;;;;;18.45;10.13;;;19.20;99.90;;;;;;2075683;28;20029;-70
2023/07/02 04:10:54;;;;;;;16.88;9.57;;;19.20;99.90;;;;;;2075670;28;20113;-70
2023/07/02 04:11:54;;;;;;;16.25;9.63;;;19.20;99.90;;;;;;2074783;28;20065;-70
2023/07/02 04:12:55;;;;;;;18.38;10.10;;;19.20;99.90;;;;;;2074917;28;20166;-70
2023/07/02 04:13:55;;;;;;;16.35;9.65;;;19.20;99.90;;;;;;2075524;28;20120;-70
2023/07/02 04:14:56;;;;;;;17.55;10.38;;;19.20;99.90;;;;;;2074794;28;20145;-70
2023/07/02 04:15:57;;;;;;;17.13;10.18;;;19.20;99.90;;;;;;2074459;28;20022;-70
2023/07/02 04:16:57;;;;;;;15.90;10.00;;;19.20;99.90;;;;;;2075267;28;20026;-70
2023/07/02 04:17:58;;;;;;;17.92;10.20;;;19.20;99.90;;;;;;2079004;28;20537;-70
2023/07/02 04:18:58;;;;;;;14.18;9.30;;;19.20;99.90;;;;;;2077984;28;20500;-70
2023/07/02 04:20:01;;;;;;;16.70;10.10;;;19.20;99.90;;;;;;2076584;28;20029;-70
2023/07/02 04:21:02;;;;;;;17.80;10.77;;;19.20;99.90;;;;;;2073372;28;20028;-70
2023/07/02 04:22:03;;;;;;;21.38;10.45;;;19.20;99.90;;;;;;2073651;28;20090;-70
2023/07/02 04:23:04;;;;;;;18.42;10.90;;;19.20;99.90;;;;;;2075626;28;20025;-70
2023/07/02 04:24:04;;;;;;;18.80;10.88;;;19.20;99.90;;;;;;2073525;28;20034;-70
2023/07/02 04:25:05;;;;;;;17.27;10.10;;;19.20;99.90;;;;;;2073960;28;20026;-70
2023/07/02 04:26:07;;;;;;;19.50;9.95;;;19.20;99.90;;;;;;2075449;28;20416;-70
2023/07/02 04:27:08;;;;;;;18.70;11.40;;;19.20;99.90;;;;;;2074641;28;20029;-70
2023/07/02 04:28:08;;;;;;;18.58;10.35;;;19.20;99.90;;;;;;2072543;28;20534;-70
2023/07/02 04:29:12;;;;;;;18.92;10.98;;;19.20;99.90;;;;;;2073293;28;20034;-70
2023/07/02 04:30:14;;;;;;;18.65;11.23;;;19.20;99.90;;;;;;2075220;28;20049;-70
2023/07/02 04:31:14;;;;;;;20.50;11.20;;;19.20;99.90;;;;;;2074082;28;20053;-70
2023/07/02 04:32:15;;;;;;;19.52;11.05;;;19.20;99.90;;;;;;2076085;28;20030;-70
2023/07/02 04:33:15;;;;;;;25.00;12.57;;;19.20;99.90;;;;;;2074180;28;20018;-70
2023/07/02 04:34:16;;;;;;;29.45;13.98;;;19.20;99.90;;;;;;2075407;28;20130;-70
2023/07/02 04:35:17;;;;;;;29.67;14.35;;;19.20;99.90;;;;;;2074192;28;20021;-70
2023/07/02 04:36:17;;;;;;;28.13;13.77;;;19.20;99.90;;;;;;2076181;28;20120;-70
2023/07/02 04:37:18;;;;;;;30.17;14.30;;;19.20;99.90;;;;;;2075305;28;20960;-70
2023/07/02 04:38:19;;;;;;;23.27;13.10;;;19.20;99.90;;;;;;2075189;28;20036;-70
2023/07/02 04:39:19;;;;;;;22.08;13.25;;;19.20;99.90;;;;;;2075955;28;20053;-70
2023/07/02 04:40:20;;;;;;;23.75;12.70;;;19.20;99.90;;;;;;2076502;28;20027;-70
2023/07/02 04:41:20;;;;;;;24.35;12.77;;;19.20;99.90;;;;;;2078294;28;20029;-70
2023/07/02 04:42:21;;;;;;;22.83;12.55;;;19.20;99.90;;;;;;2075497;28;20033;-70
2023/07/02 04:43:21;;;;;;;22.52;12.90;;;19.20;99.90;;;;;;2075387;28;20014;-70
2023/07/02 04:44:29;;;;;;;22.77;12.63;;;19.10;99.90;;;;;;2075581;28;20153;-70
2023/07/02 04:45:31;;;;;;;19.60;12.52;;;19.20;99.90;;;;;;2076007;28;20389;-70
2023/07/02 04:46:32;;;;;;;20.00;12.45;;;19.10;99.90;;;;;;2074574;28;20421;-70
2023/07/02 04:47:32;;;;;;;23.15;12.95;;;19.20;99.90;;;;;;2077137;28;20036;-70
2023/07/02 04:48:33;;;;;;;22.88;12.60;;;19.20;99.90;;;;;;2076570;28;20033;-70
2023/07/02 04:49:34;;;;;;;25.73;13.05;;;19.10;99.90;;;;;;2075232;28;20064;-70
2023/07/02 04:50:35;;;;;;;21.33;12.75;;;19.20;99.90;;;;;;2077615;28;20049;-70
2023/07/02 04:51:35;;;;;;;22.92;13.18;;;19.20;99.90;;;;;;2077530;28;20025;-70
2023/07/02 04:52:36;;;;;;;22.65;13.25;;;19.10;99.90;;;;;;2076874;28;20068;-70
2023/07/02 04:53:37;;;;;;;22.17;13.30;;;19.10;99.90;;;;;;2079305;28;20162;-70
2023/07/02 04:54:38;;;;;;;23.42;13.80;;;19.10;99.90;;;;;;2076074;28;20029;-70
2023/07/02 04:55:38;;;;;;;21.98;13.48;;;19.10;99.90;;;;;;2076073;28;20503;-70
2023/07/02 04:56:39;;;;;;;21.95;14.07;;;19.20;99.90;;;;;;2076791;28;20021;-70
2023/07/02 04:57:39;;;;;;;18.63;13.52;;;19.20;99.90;;;;;;2078106;28;20029;-70
2023/07/02 04:58:40;;;;;;;23.70;14.43;;;19.20;99.90;;;;;;2076554;28;20488;-70
2023/07/02 04:59:46;;;;;;;25.30;14.32;;;19.20;99.90;;;;;;2076461;28;20474;-70
2023/07/02 05:00:47;;;;;;;23.58;14.10;;;19.20;99.90;;;;;;2076910;28;20030;-70
2023/07/02 05:01:47;;;;;;;19.63;13.85;;;19.20;99.90;;;;;;2076689;28;20033;-70
2023/07/02 05:02:48;;;;;;;22.45;13.95;;;19.20;99.90;;;;;;2075542;28;20388;-70
2023/07/02 05:03:49;;;;;;;22.13;13.88;;;19.20;99.90;;;;;;2074266;28;20094;-70
2023/07/02 05:04:49;;;;;;;22.48;14.38;;;19.20;99.90;;;;;;2078044;28;20025;-70
2023/07/02 05:05:50;;;;;;;25.02;14.00;;;19.30;99.90;;;;;;2077572;28;20033;-70
2023/07/02 05:06:50;;;;;;;20.40;13.32;;;19.30;99.90;;;;;;2076142;28;20670;-70
2023/07/02 05:07:51;;;;;;;27.50;14.77;;;19.30;99.90;;;;;;2076821;28;20018;-70
2023/07/02 05:08:52;;;;;;;23.52;13.75;;;19.30;99.90;;;;;;2076622;28;20114;-70
2023/07/02 05:09:53;;;;;;;22.73;13.77;;;19.40;99.90;;;;;;2076041;28;20022;-70
2023/07/02 05:10:53;;;;;;;23.70;14.27;;;19.40;99.90;;;;;;2077271;28;20017;-70
2023/07/02 05:11:54;;;;;;;24.98;14.50;;;19.40;99.90;;;;;;2076648;28;20045;-70
2023/07/02 05:12:54;;;;;;;23.35;14.80;;;19.40;99.90;;;;;;2077321;28;20104;-70
2023/07/02 05:13:55;;;;;;;22.38;14.35;;;19.40;99.90;;;;;;2076324;28;20517;-70
2023/07/02 05:14:55;;;;;;;20.73;13.55;;;19.40;99.90;;;;;;2075390;28;20679;-70